createdAt,value
2019-05-29T00:01:34.794Z,28.45
2019-05-29T00:04:08.120Z,25.32
2019-05-29T00:06:42.374Z,33.02
2019-05-29T00:09:14.583Z,35.17
2019-05-29T00:11:47.069Z,31.02
2019-05-29T00:14:27.108Z,32.88
2019-05-29T00:16:55.003Z,39.83
2019-05-29T00:19:27.636Z,35.43
2019-05-29T00:22:01.193Z,31.23
2019-05-29T00:24:52.971Z,29.65
2019-05-29T00:27:25.860Z,36.05
2019-05-29T00:29:58.872Z,30.05
2019-05-29T00:32:31.681Z,29.72
2019-05-29T00:37:36.033Z,33.18
2019-05-29T00:40:13.059Z,29.05
2019-05-29T00:42:47.077Z,27.40
2019-05-29T00:45:20.170Z,29.18
2019-05-29T00:47:52.958Z,26.93
2019-05-29T00:52:57.708Z,26.35
2019-05-29T00:58:02.560Z,24.32
2019-05-29T01:00:37.506Z,19.85
2019-05-29T01:03:11.545Z,19.48
2019-05-29T01:05:45.500Z,18.95
2019-05-29T01:08:20.426Z,13.45
2019-05-29T01:10:53.427Z,16.52
2019-05-29T01:13:26.669Z,15.38
2019-05-29T01:15:59.937Z,18.48
2019-05-29T01:18:32.397Z,15.65
2019-05-29T01:21:05.074Z,18.73
2019-05-29T01:23:37.885Z,14.28
2019-05-29T01:26:12.425Z,14.33
2019-05-29T01:28:45.618Z,12.78
2019-05-29T01:31:19.380Z,13.62
2019-05-29T01:33:52.406Z,15.93
2019-05-29T01:38:58.082Z,19.48
2019-05-29T01:41:30.853Z,22.77
2019-05-29T01:44:04.285Z,17.95
2019-05-29T01:46:37.542Z,23.98
2019-05-29T01:49:13.903Z,22.85
2019-05-29T01:51:46.822Z,22.02
2019-05-29T01:54:19.715Z,27.15
2019-05-29T01:56:52.628Z,26.00
2019-05-29T01:59:25.982Z,25.17
2019-05-29T02:02:02.490Z,26.77
2019-05-29T02:04:35.298Z,30.95
2019-05-29T02:09:39.509Z,58.98
2019-05-29T02:12:11.937Z,31.40
2019-05-29T02:14:45.755Z,32.28
2019-05-29T02:17:19.847Z,32.08
2019-05-29T02:19:53.617Z,38.80
2019-05-29T02:24:57.963Z,28.62
2019-05-29T02:27:34.288Z,36.08
2019-05-29T02:30:11.833Z,39.53
2019-05-29T02:32:45.467Z,55.35
2019-05-29T02:35:20.100Z,37.45
2019-05-29T02:37:53.184Z,38.53
2019-05-29T02:40:30.033Z,41.70
2019-05-29T02:43:03.605Z,37.83
2019-05-29T02:45:52.658Z,29.60
2019-05-29T02:48:13.943Z,34.18
2019-05-29T02:50:47.309Z,32.60
2019-05-29T02:53:20.069Z,35.55
2019-05-29T02:58:25.844Z,28.23
2019-05-29T03:00:58.849Z,25.35
2019-05-29T03:03:34.903Z,29.15
2019-05-29T03:06:06.300Z,34.70
2019-05-29T03:08:39.668Z,25.02
2019-05-29T03:11:16.476Z,23.80
2019-05-29T03:13:50.107Z,26.40
2019-05-29T03:16:23.936Z,24.07
2019-05-29T03:18:57.253Z,22.58
2019-05-29T03:24:04.720Z,27.90
2019-05-29T03:26:38.400Z,24.75
2019-05-29T03:29:11.117Z,23.98
2019-05-29T03:34:19.393Z,19.98
2019-05-29T03:36:53.406Z,30.45
2019-05-29T03:39:26.336Z,33.02
2019-05-29T03:41:59.595Z,32.25
2019-05-29T03:47:05.065Z,35.55
2019-05-29T03:52:10.700Z,29.47
2019-05-29T03:57:14.711Z,29.63
2019-05-29T03:59:50.193Z,34.60
2019-05-29T04:02:23.425Z,36.68
2019-05-29T04:04:57.865Z,36.05
2019-05-29T04:07:31.345Z,34.08
2019-05-29T04:10:04.096Z,42.55
2019-05-29T04:15:10.076Z,45.05
2019-05-29T04:20:16.649Z,41.90
2019-05-29T04:25:20.741Z,43.23
2019-05-29T04:27:53.990Z,42.05
2019-05-29T04:30:28.138Z,52.25
2019-05-29T04:33:01.542Z,41.00
2019-05-29T04:35:34.594Z,37.48
2019-05-29T04:38:08.092Z,44.27
2019-05-29T04:40:41.327Z,39.42
2019-05-29T04:43:14.827Z,42.45
2019-05-29T04:45:48.172Z,47.98
2019-05-29T04:48:21.146Z,39.10
2019-05-29T04:50:53.458Z,44.13
2019-05-29T04:53:29.243Z,43.70
2019-05-29T04:56:02.383Z,45.65
2019-05-29T04:58:35.218Z,52.33
2019-05-29T05:01:07.843Z,48.80
2019-05-29T05:03:40.578Z,48.92
2019-05-29T05:06:13.259Z,45.17
2019-05-29T05:08:46.346Z,45.43
2019-05-29T05:11:20.006Z,42.95
2019-05-29T05:16:24.426Z,48.75
2019-05-29T05:18:57.236Z,50.73
2019-05-29T05:21:29.940Z,51.73
2019-05-29T05:26:36.195Z,50.10
2019-05-29T05:29:09.662Z,55.12
2019-05-29T05:31:43.137Z,49.10
2019-05-29T05:34:16.175Z,52.25
2019-05-29T05:36:49.023Z,50.80
2019-05-29T05:39:22.550Z,52.10
2019-05-29T05:41:55.545Z,53.40
2019-05-29T05:44:32.746Z,58.23
2019-05-29T05:47:05.699Z,43.85
2019-05-29T05:52:10.744Z,42.38
2019-05-29T05:54:43.586Z,40.17
2019-05-29T05:59:48.484Z,37.90
2019-05-29T06:02:21.376Z,43.25
2019-05-29T06:07:27.676Z,51.35
2019-05-29T06:10:01.555Z,49.05
2019-05-29T06:12:38.504Z,51.08
2019-05-29T06:15:13.907Z,49.03
2019-05-29T06:18:10.225Z,43.63
2019-05-29T06:20:22.087Z,51.33
2019-05-29T06:22:55.407Z,52.78
2019-05-29T06:25:36.277Z,42.35
2019-05-29T06:28:08.424Z,45.65
2019-05-29T06:30:42.573Z,46.28
2019-05-29T06:33:19.254Z,48.65
2019-05-29T06:35:52.151Z,46.15
2019-05-29T06:38:25.188Z,50.25
2019-05-29T06:40:57.821Z,48.90
2019-05-29T06:43:30.715Z,44.77
2019-05-29T06:46:02.954Z,41.08
2019-05-29T06:48:46.150Z,47.43
2019-05-29T06:51:30.977Z,52.13
2019-05-29T06:54:04.637Z,51.55
2019-05-29T06:56:37.994Z,63.80
2019-05-29T06:59:10.748Z,45.30
2019-05-29T07:01:43.597Z,51.28
2019-05-29T07:04:16.413Z,57.48
2019-05-29T07:06:49.634Z,47.50
2019-05-29T07:09:22.951Z,54.77
2019-05-29T07:11:55.688Z,58.35
2019-05-29T07:17:00.136Z,59.77
2019-05-29T07:19:47.656Z,378.30
2019-05-29T07:22:08.550Z,61.20
2019-05-29T07:24:43.491Z,65.08
2019-05-29T07:27:15.987Z,57.70
2019-05-29T07:29:49.367Z,61.68
2019-05-29T07:32:21.960Z,62.62
2019-05-29T07:35:03.255Z,63.52
2019-05-29T07:37:28.708Z,67.12
2019-05-29T07:40:02.049Z,69.80
2019-05-29T07:42:34.506Z,61.95
2019-05-29T07:45:08.923Z,56.95
2019-05-29T07:47:42.582Z,83.85
2019-05-29T07:50:15.553Z,57.25
2019-05-29T07:52:49.094Z,58.10
2019-05-29T07:55:23.795Z,65.52
2019-05-29T07:57:57.901Z,69.80
2019-05-29T08:00:35.794Z,62.15
2019-05-29T08:03:05.434Z,64.10
2019-05-29T08:05:39.621Z,65.80
2019-05-29T08:08:12.400Z,63.28
2019-05-29T08:10:45.962Z,66.37
2019-05-29T08:13:18.947Z,68.83
2019-05-29T08:16:02.036Z,64.75
2019-05-29T08:18:27.019Z,69.97
2019-05-29T08:21:00.753Z,64.30
2019-05-29T08:23:33.701Z,66.07
2019-05-29T08:26:09.281Z,66.82
2019-05-29T08:28:42.800Z,72.95
2019-05-29T08:31:34.882Z,68.05
2019-05-29T08:34:07.205Z,127.53
2019-05-29T08:36:40.813Z,72.50
2019-05-29T08:39:32.930Z,73.75
2019-05-29T08:42:17.543Z,68.92
2019-05-29T08:44:23.002Z,65.25
2019-05-29T08:47:08.961Z,65.57
2019-05-29T08:49:29.139Z,74.87
2019-05-29T08:52:11.693Z,64.65
2019-05-29T08:54:36.339Z,67.55
2019-05-29T08:57:09.249Z,66.37
2019-05-29T08:59:42.138Z,64.72
2019-05-29T09:02:15.396Z,61.95
2019-05-29T09:05:07.877Z,88.52
2019-05-29T09:07:40.697Z,70.05
2019-05-29T09:10:13.336Z,76.80
2019-05-29T09:12:55.477Z,82.27
2019-05-29T09:15:21.434Z,55.80
2019-05-29T09:17:55.193Z,63.08
2019-05-29T09:20:49.530Z,64.35
2019-05-29T09:23:01.899Z,59.77
2019-05-29T09:25:34.340Z,62.80
2019-05-29T09:28:16.645Z,74.12
2019-05-29T09:30:49.898Z,67.65
2019-05-29T09:35:55.430Z,64.37
2019-05-29T09:38:28.753Z,58.08
2019-05-29T09:43:33.059Z,56.00
2019-05-29T09:46:05.682Z,52.13
2019-05-29T09:48:49.173Z,51.10
2019-05-29T09:51:21.255Z,51.98
2019-05-29T09:53:46.449Z,55.38
2019-05-29T09:56:19.387Z,51.95
2019-05-29T10:01:25.112Z,54.13
2019-05-29T10:04:00.073Z,45.90
2019-05-29T10:06:33.076Z,43.90
2019-05-29T10:09:10.493Z,45.33
2019-05-29T10:11:44.712Z,51.13
2019-05-29T10:14:17.385Z,46.05
2019-05-29T10:16:50.142Z,53.28
2019-05-29T10:19:23.138Z,47.23
2019-05-29T10:21:56.827Z,51.68
2019-05-29T10:24:32.371Z,42.75
2019-05-29T10:27:04.848Z,45.83
2019-05-29T10:29:37.700Z,42.08
2019-05-29T10:32:10.241Z,44.20
2019-05-29T10:34:44.208Z,43.35
2019-05-29T10:37:18.242Z,41.35
2019-05-29T10:39:51.142Z,37.73
2019-05-29T10:42:23.489Z,43.70
2019-05-29T10:44:56.485Z,50.23
2019-05-29T10:47:29.187Z,50.10
2019-05-29T10:50:01.975Z,46.37
2019-05-29T10:55:07.865Z,42.05
2019-05-29T10:57:41.746Z,64.32
2019-05-29T11:00:18.150Z,46.55
2019-05-29T11:02:53.547Z,42.70
2019-05-29T11:05:25.543Z,48.63
2019-05-29T11:07:58.418Z,39.67
2019-05-29T11:10:52.092Z,48.40
2019-05-29T11:13:25.069Z,57.20
2019-05-29T11:15:57.426Z,58.75
2019-05-29T11:18:31.250Z,46.98
2019-05-29T11:21:03.521Z,46.83
2019-05-29T11:23:36.109Z,37.65
2019-05-29T11:26:08.616Z,52.48
2019-05-29T11:28:41.312Z,40.35
2019-05-29T11:33:46.646Z,43.75
2019-05-29T11:38:52.456Z,36.95
2019-05-29T11:41:26.768Z,40.90
2019-05-29T11:43:59.935Z,46.10
2019-05-29T11:46:32.370Z,44.27
2019-05-29T11:49:05.424Z,39.65
2019-05-29T11:51:44.040Z,42.35
2019-05-29T11:54:15.891Z,44.15
2019-05-29T11:56:51.837Z,38.95
2019-05-29T11:59:24.551Z,36.68
2019-05-29T12:02:00.739Z,40.55
2019-05-29T12:04:34.744Z,39.23
2019-05-29T12:07:07.276Z,32.35
2019-05-29T12:12:11.925Z,33.55
2019-05-29T12:14:59.256Z,33.18
2019-05-29T12:17:18.630Z,26.82
2019-05-29T12:19:51.965Z,24.30
2019-05-29T12:24:56.531Z,28.10
2019-05-29T12:27:29.614Z,33.00
2019-05-29T12:30:05.409Z,25.00
2019-05-29T12:32:37.882Z,29.48
2019-05-29T12:35:11.236Z,27.73
2019-05-29T12:37:43.668Z,26.23
2019-05-29T12:40:16.494Z,33.85
2019-05-29T12:42:49.311Z,36.30
2019-05-29T12:45:22.381Z,25.40
2019-05-29T12:47:56.493Z,30.68
2019-05-29T12:50:34.076Z,31.55
2019-05-29T12:53:03.982Z,27.50
2019-05-29T12:55:36.800Z,24.02
2019-05-29T12:58:09.376Z,29.92
2019-05-29T13:00:42.295Z,30.95
2019-05-29T13:03:14.966Z,27.62
2019-05-29T13:05:47.992Z,21.17
2019-05-29T13:10:54.246Z,26.42
2019-05-29T13:13:27.127Z,28.20
2019-05-29T13:18:32.927Z,22.00
2019-05-29T13:21:06.586Z,25.40
2019-05-29T13:23:45.214Z,22.32
2019-05-29T13:26:13.365Z,24.90
2019-05-29T13:31:17.125Z,27.55
2019-05-29T13:36:21.760Z,22.22
2019-05-29T13:38:55.867Z,21.45
2019-05-29T13:41:30.506Z,18.55
2019-05-29T13:44:04.649Z,17.95
2019-05-29T13:46:38.903Z,15.45
2019-05-29T13:49:11.855Z,15.60
2019-05-29T13:51:44.506Z,13.32
2019-05-29T13:54:18.300Z,9.88
2019-05-29T13:56:51.217Z,11.70
2019-05-29T13:59:23.951Z,8.88
2019-05-29T14:01:58.268Z,10.82
2019-05-29T14:04:31.088Z,11.35
2019-05-29T14:07:04.933Z,11.03
2019-05-29T14:09:38.252Z,11.85
2019-05-29T14:12:10.886Z,12.45
2019-05-29T14:14:44.217Z,14.10
2019-05-29T14:17:17.872Z,13.58
2019-05-29T14:19:50.822Z,14.87
2019-05-29T14:22:23.880Z,13.32
2019-05-29T14:24:56.589Z,14.78
2019-05-29T14:27:30.438Z,25.17
2019-05-29T14:30:05.237Z,15.68
2019-05-29T14:32:38.247Z,11.70
2019-05-29T14:35:13.420Z,14.60
2019-05-29T14:37:46.603Z,14.15
2019-05-29T14:40:19.545Z,11.48
2019-05-29T14:42:52.351Z,15.72
2019-05-29T14:45:25.308Z,14.87
2019-05-29T14:47:57.653Z,11.30
2019-05-29T14:50:30.238Z,14.15
2019-05-29T14:53:02.981Z,17.42
2019-05-29T14:58:07.748Z,13.83
2019-05-29T15:00:41.090Z,16.57
2019-05-29T15:03:16.279Z,17.05
2019-05-29T15:05:49.908Z,15.80
2019-05-29T15:08:23.136Z,13.60
2019-05-29T15:10:56.852Z,14.60
2019-05-29T15:13:29.842Z,14.65
2019-05-29T15:16:04.499Z,13.38
2019-05-29T15:18:37.630Z,13.68
2019-05-29T15:21:11.169Z,15.88
2019-05-29T15:23:44.036Z,13.68
2019-05-29T15:26:17.382Z,15.45
2019-05-29T15:28:51.828Z,16.30
2019-05-29T15:31:24.559Z,16.87
2019-05-29T15:33:57.484Z,17.27
2019-05-29T15:39:06.497Z,13.93
2019-05-29T15:41:39.266Z,14.35
2019-05-29T15:44:23.840Z,15.15
2019-05-29T15:46:58.532Z,13.00
2019-05-29T15:49:32.166Z,14.23
2019-05-29T15:52:06.879Z,16.32
2019-05-29T15:54:40.350Z,15.05
2019-05-29T15:57:13.220Z,15.75
2019-05-29T16:02:18.161Z,13.48
2019-05-29T16:07:21.909Z,14.55
2019-05-29T16:09:54.546Z,13.72
2019-05-29T16:12:30.711Z,12.73
2019-05-29T16:15:01.025Z,11.43
2019-05-29T16:17:34.062Z,14.28
2019-05-29T16:20:08.450Z,11.50
2019-05-29T16:22:41.114Z,11.00
2019-05-29T16:25:16.990Z,13.78
2019-05-29T16:27:50.692Z,13.45
2019-05-29T16:30:24.302Z,12.93
2019-05-29T16:32:56.828Z,11.83
2019-05-29T16:38:02.711Z,12.18
2019-05-29T16:40:35.602Z,17.23
2019-05-29T16:43:08.244Z,12.78
2019-05-29T16:45:40.780Z,14.43
2019-05-29T16:48:14.606Z,10.93
2019-05-29T16:50:47.311Z,19.45
2019-05-29T16:53:21.038Z,17.17
2019-05-29T16:55:54.490Z,16.50
2019-05-29T16:58:26.976Z,18.60
2019-05-29T17:01:00.840Z,16.07
2019-05-29T17:03:46.505Z,15.75
2019-05-29T17:06:20.306Z,14.75
2019-05-29T17:08:53.285Z,18.12
2019-05-29T17:14:04.888Z,16.97
2019-05-29T17:16:37.813Z,19.80
2019-05-29T17:19:10.308Z,16.15
2019-05-29T17:21:44.145Z,12.90
2019-05-29T17:24:16.675Z,17.42
2019-05-29T17:26:49.299Z,13.35
2019-05-29T17:29:22.664Z,17.40
2019-05-29T17:31:55.517Z,12.90
2019-05-29T17:34:27.998Z,13.58
2019-05-29T17:37:00.952Z,16.97
2019-05-29T17:39:33.746Z,15.28
2019-05-29T17:42:06.205Z,15.78
2019-05-29T17:44:38.919Z,16.17
2019-05-29T17:49:43.294Z,19.45
2019-05-29T17:52:16.010Z,17.40
2019-05-29T17:54:48.337Z,18.17
2019-05-29T17:57:21.834Z,19.87
2019-05-29T17:59:54.608Z,15.10
2019-05-29T18:02:27.581Z,19.12
2019-05-29T18:07:31.741Z,22.13
2019-05-29T18:10:12.271Z,22.95
2019-05-29T18:12:45.610Z,18.73
2019-05-29T18:15:19.551Z,22.62
2019-05-29T18:17:52.825Z,17.85
2019-05-29T18:20:25.878Z,16.52
2019-05-29T18:22:58.544Z,18.12
2019-05-29T18:25:30.928Z,19.73
2019-05-29T18:28:03.806Z,19.62
2019-05-29T18:30:36.194Z,19.23
2019-05-29T18:33:09.164Z,21.40
2019-05-29T18:38:13.023Z,21.95
2019-05-29T18:43:16.809Z,21.82
2019-05-29T18:45:49.527Z,22.95
2019-05-29T18:48:23.180Z,22.50
2019-05-29T18:50:55.854Z,24.15
2019-05-29T18:56:01.172Z,23.73
2019-05-29T18:58:34.143Z,27.07
2019-05-29T19:01:07.090Z,33.58
2019-05-29T19:03:40.652Z,32.48
2019-05-29T19:06:13.265Z,35.30
2019-05-29T19:08:46.118Z,42.55
2019-05-29T19:11:19.306Z,39.98
2019-05-29T19:13:52.907Z,42.45
2019-05-29T19:16:27.999Z,45.17
2019-05-29T19:19:00.567Z,44.73
2019-05-29T19:21:33.645Z,48.55
2019-05-29T19:24:06.091Z,47.90
2019-05-29T19:26:39.180Z,49.90
2019-05-29T19:29:11.757Z,54.38
2019-05-29T19:31:45.558Z,49.48
2019-05-29T19:34:17.996Z,54.27
2019-05-29T19:36:51.111Z,60.10
2019-05-29T19:39:23.871Z,67.47
2019-05-29T19:41:57.827Z,70.45
2019-05-29T19:44:49.623Z,69.90
2019-05-29T19:47:22.803Z,66.87
2019-05-29T19:49:55.124Z,65.08
2019-05-29T19:52:29.007Z,64.30
2019-05-29T19:55:01.472Z,62.08
2019-05-29T19:57:50.506Z,63.10
2019-05-29T20:00:14.241Z,65.92
2019-05-29T20:02:46.902Z,62.48
2019-05-29T20:07:51.312Z,68.47
2019-05-29T20:10:23.795Z,60.95
2019-05-29T20:12:56.252Z,61.70
2019-05-29T20:15:29.876Z,67.82
2019-05-29T20:18:02.598Z,61.80
2019-05-29T20:20:35.072Z,58.73
2019-05-29T20:23:08.102Z,63.58
2019-05-29T20:25:40.810Z,64.30
2019-05-29T20:28:13.752Z,72.85
2019-05-29T20:33:19.372Z,75.60
2019-05-29T20:35:53.222Z,67.30
2019-05-29T20:38:25.652Z,67.08
2019-05-29T20:40:58.698Z,67.87
2019-05-29T20:43:31.549Z,72.87
2019-05-29T20:46:04.423Z,68.92
2019-05-29T20:51:09.430Z,65.25
2019-05-29T20:56:15.273Z,60.87
2019-05-29T20:58:48.458Z,60.70
2019-05-29T21:03:52.525Z,62.27
2019-05-29T21:06:25.135Z,66.57
2019-05-29T21:11:29.256Z,62.40
2019-05-29T21:14:02.058Z,56.95
2019-05-29T21:16:35.507Z,62.80
2019-05-29T21:19:08.333Z,59.05
2019-05-29T21:21:40.780Z,60.08
2019-05-29T21:24:13.279Z,52.53
2019-05-29T21:26:45.521Z,61.02
2019-05-29T21:29:18.686Z,52.48
2019-05-29T21:34:25.287Z,55.58
2019-05-29T21:36:58.081Z,56.23
2019-05-29T21:39:30.838Z,55.03
2019-05-29T21:42:03.276Z,58.28
2019-05-29T21:44:36.617Z,61.20
2019-05-29T21:47:11.285Z,61.00
2019-05-29T21:49:45.777Z,57.55
2019-05-29T21:52:18.707Z,56.30
2019-05-29T21:54:51.602Z,56.70
2019-05-29T21:57:31.191Z,57.48
2019-05-29T22:00:03.615Z,53.90
2019-05-29T22:02:38.261Z,52.17
2019-05-29T22:05:11.954Z,46.33
2019-05-29T22:07:44.840Z,43.68
2019-05-29T22:12:50.250Z,46.98
2019-05-29T22:15:22.754Z,48.00
2019-05-29T22:17:57.098Z,44.95
2019-05-29T22:20:30.693Z,42.17
2019-05-29T22:23:03.498Z,46.77
2019-05-29T22:25:35.955Z,37.45
2019-05-29T22:28:08.726Z,39.40
2019-05-29T22:30:41.514Z,35.00
2019-05-29T22:33:14.433Z,36.83
2019-05-29T22:35:47.371Z,35.95
2019-05-29T22:38:20.468Z,36.17
2019-05-29T22:40:53.776Z,34.00
2019-05-29T22:43:26.409Z,35.40
2019-05-29T22:45:59.732Z,35.23
2019-05-29T22:48:33.656Z,33.92
2019-05-29T22:51:06.862Z,39.30
2019-05-29T22:53:39.836Z,41.08
2019-05-29T22:56:13.265Z,43.75
2019-05-29T22:58:46.539Z,35.80
2019-05-29T23:01:20.187Z,43.17
2019-05-29T23:03:54.152Z,49.05
2019-05-29T23:06:31.669Z,41.10
2019-05-29T23:09:04.675Z,44.13
2019-05-29T23:14:09.283Z,42.70
2019-05-29T23:19:13.989Z,50.33
2019-05-29T23:21:46.572Z,54.27
2019-05-29T23:24:19.595Z,54.73
2019-05-29T23:26:52.927Z,58.87
2019-05-29T23:29:26.200Z,50.50
2019-05-29T23:31:58.942Z,50.95
2019-05-29T23:34:31.756Z,53.92
2019-05-29T23:37:04.227Z,43.68
2019-05-29T23:39:36.848Z,49.65
2019-05-29T23:42:09.452Z,44.18
2019-05-29T23:44:42.137Z,51.30
2019-05-29T23:47:16.076Z,44.35
2019-05-29T23:52:20.541Z,54.00
2019-05-29T23:54:53.595Z,53.23
2019-05-29T23:57:26.713Z,49.45
